createdAt,value
2022-11-10T00:07:30.980Z,8.45
2022-11-10T00:10:16.796Z,8.47
2022-11-10T00:13:03.748Z,8.61
2022-11-10T00:16:07.635Z,8.53
2022-11-10T00:18:53.300Z,8.54
2022-11-10T00:21:38.977Z,8.52
2022-11-10T00:24:24.936Z,8.68
2022-11-10T00:27:10.453Z,8.59
2022-11-10T00:29:56.167Z,8.51
2022-11-10T00:32:41.769Z,8.64
2022-11-10T00:35:27.181Z,8.45
2022-11-10T00:38:12.443Z,8.49
2022-11-10T00:41:00.123Z,8.43
2022-11-10T00:43:45.757Z,8.47
2022-11-10T00:46:30.807Z,8.32
2022-11-10T00:49:16.170Z,8.52
2022-11-10T00:52:01.995Z,8.47
2022-11-10T00:54:47.250Z,8.37
2022-11-10T00:57:32.784Z,8.27
2022-11-10T01:00:18.411Z,8.00
2022-11-10T01:03:03.974Z,7.88
2022-11-10T01:05:49.420Z,7.91
2022-11-10T01:08:34.889Z,7.79
2022-11-10T01:11:24.768Z,7.83
2022-11-10T01:14:10.364Z,7.74
2022-11-10T01:16:56.013Z,7.79
2022-11-10T01:19:42.298Z,7.77
2022-11-10T01:22:27.889Z,7.88
2022-11-10T01:25:13.358Z,7.92
2022-11-10T01:27:58.980Z,7.68
2022-11-10T01:30:44.614Z,7.46
2022-11-10T01:33:30.301Z,7.33
2022-11-10T01:36:16.043Z,7.42
2022-11-10T01:39:01.893Z,7.14
2022-11-10T01:41:47.363Z,6.90
2022-11-10T01:44:35.261Z,7.01
2022-11-10T01:47:20.635Z,6.89
2022-11-10T01:50:06.941Z,6.86
2022-11-10T01:52:56.831Z,6.74
2022-11-10T01:55:44.735Z,6.62
2022-11-10T01:58:34.174Z,6.89
2022-11-10T02:01:19.724Z,6.97
2022-11-10T02:04:08.570Z,7.01
2022-11-10T02:06:55.050Z,7.01
2022-11-10T02:09:40.540Z,7.21
2022-11-10T02:12:38.197Z,7.41
2022-11-10T02:15:24.475Z,7.63
2022-11-10T02:18:09.812Z,7.80
2022-11-10T02:20:55.501Z,7.83
2022-11-10T02:23:43.386Z,7.98
2022-11-10T02:26:30.152Z,8.26
2022-11-10T02:29:15.812Z,8.13
2022-11-10T02:32:01.168Z,7.85
2022-11-10T02:34:46.542Z,7.86
2022-11-10T02:37:32.418Z,8.04
2022-11-10T02:40:17.946Z,8.14
2022-11-10T02:43:11.071Z,8.28
2022-11-10T02:45:56.583Z,8.41
2022-11-10T02:48:42.316Z,8.41
2022-11-10T02:51:27.520Z,8.55
2022-11-10T02:54:12.840Z,8.55
2022-11-10T02:56:58.285Z,8.53
2022-11-10T02:59:43.414Z,8.66
2022-11-10T03:02:32.232Z,8.85
2022-11-10T03:05:17.821Z,8.87
2022-11-10T03:08:03.949Z,8.94
2022-11-10T03:10:53.687Z,8.95
2022-11-10T03:13:58.972Z,8.96
2022-11-10T03:16:44.468Z,8.98
2022-11-10T03:19:30.159Z,8.90
2022-11-10T03:22:15.675Z,8.92
2022-11-10T03:25:00.769Z,8.98
2022-11-10T03:27:46.404Z,9.08
2022-11-10T03:30:31.685Z,9.11
2022-11-10T03:33:17.434Z,9.15
2022-11-10T03:36:03.044Z,8.99
2022-11-10T03:38:48.755Z,8.94
2022-11-10T03:41:34.155Z,8.96
2022-11-10T03:44:19.476Z,8.81
2022-11-10T03:47:05.325Z,8.45
2022-11-10T03:49:50.910Z,7.86
2022-11-10T03:52:40.492Z,7.82
2022-11-10T03:55:25.673Z,7.94
2022-11-10T03:58:11.167Z,8.09
2022-11-10T04:00:57.485Z,7.79
2022-11-10T04:03:46.206Z,7.68
2022-11-10T04:06:52.769Z,7.93
2022-11-10T04:09:38.348Z,8.05
2022-11-10T04:12:42.207Z,7.88
2022-11-10T04:15:42.428Z,8.10
2022-11-10T04:18:29.882Z,8.12
2022-11-10T04:21:15.714Z,8.08
2022-11-10T04:24:00.896Z,8.39
2022-11-10T04:26:47.594Z,8.55
2022-11-10T04:29:33.172Z,8.59
2022-11-10T04:32:18.985Z,8.49
2022-11-10T04:35:04.528Z,8.53
2022-11-10T04:37:50.257Z,8.66
2022-11-10T04:40:35.409Z,8.71
2022-11-10T04:43:21.727Z,8.77
2022-11-10T04:46:13.393Z,8.79
2022-11-10T04:48:59.672Z,8.83
2022-11-10T04:51:45.115Z,8.96
2022-11-10T04:54:30.607Z,8.99
2022-11-10T04:57:16.029Z,9.03
2022-11-10T05:00:01.536Z,9.00
2022-11-10T05:02:46.877Z,9.04
2022-11-10T05:05:32.303Z,9.09
2022-11-10T05:08:18.044Z,9.14
2022-11-10T05:11:03.335Z,9.09
2022-11-10T05:13:48.662Z,9.10
2022-11-10T05:16:34.053Z,9.21
2022-11-10T05:19:19.648Z,9.29
2022-11-10T05:22:07.044Z,9.25
2022-11-10T05:24:52.483Z,9.33
2022-11-10T05:27:37.790Z,9.44
2022-11-10T05:30:23.343Z,9.44
2022-11-10T05:33:08.664Z,9.45
2022-11-10T05:35:53.795Z,9.53
2022-11-10T05:38:43.160Z,9.62
2022-11-10T05:41:29.229Z,9.79
2022-11-10T05:44:14.608Z,9.80
2022-11-10T05:47:00.364Z,9.83
2022-11-10T05:49:45.989Z,10.06
2022-11-10T05:52:31.379Z,10.12
2022-11-10T05:55:19.560Z,10.29
2022-11-10T05:58:04.798Z,10.47
2022-11-10T06:00:50.251Z,10.47
2022-11-10T06:03:35.384Z,10.56
2022-11-10T06:06:20.792Z,10.55
2022-11-10T06:09:05.899Z,10.69
2022-11-10T06:11:51.245Z,10.86
2022-11-10T06:14:36.413Z,10.98
2022-11-10T06:17:21.737Z,10.82
2022-11-10T06:20:07.801Z,10.85
2022-11-10T06:23:13.512Z,10.87
2022-11-10T06:25:58.878Z,10.93
2022-11-10T06:28:44.364Z,11.03
2022-11-10T06:31:29.850Z,11.16
2022-11-10T06:34:15.053Z,11.12
2022-11-10T06:37:00.132Z,11.05
2022-11-10T06:39:46.604Z,11.20
2022-11-10T06:42:32.340Z,11.19
2022-11-10T06:45:17.730Z,11.49
2022-11-10T06:48:08.134Z,11.80
2022-11-10T06:50:53.783Z,11.74
2022-11-10T06:53:39.319Z,11.84
2022-11-10T06:56:24.964Z,11.92
2022-11-10T06:59:10.245Z,12.05
2022-11-10T07:01:55.568Z,12.06
2022-11-10T07:04:40.953Z,11.81
2022-11-10T07:07:26.080Z,12.09
2022-11-10T07:10:11.559Z,12.26
2022-11-10T07:12:58.667Z,12.13
2022-11-10T07:15:44.413Z,12.20
2022-11-10T07:18:29.589Z,12.52
2022-11-10T07:21:15.273Z,12.68
2022-11-10T07:24:00.495Z,12.76
2022-11-10T07:26:45.845Z,12.67
2022-11-10T07:29:31.232Z,12.94
2022-11-10T07:32:16.680Z,12.76
2022-11-10T07:35:02.074Z,13.04
2022-11-10T07:37:47.608Z,13.06
2022-11-10T07:40:33.847Z,13.50
2022-11-10T07:43:20.887Z,13.39
2022-11-10T07:46:06.819Z,13.52
2022-11-10T07:48:52.138Z,13.34
2022-11-10T07:51:37.591Z,13.57
2022-11-10T07:54:23.193Z,13.38
2022-11-10T07:57:08.390Z,13.61
2022-11-10T07:59:57.835Z,13.63
2022-11-10T08:02:43.881Z,13.48
2022-11-10T08:05:29.593Z,13.59
2022-11-10T08:08:15.316Z,13.64
2022-11-10T08:11:00.570Z,13.73
2022-11-10T08:13:46.264Z,13.58
2022-11-10T08:16:31.779Z,13.54
2022-11-10T08:19:17.084Z,13.57
2022-11-10T08:22:02.618Z,14.05
2022-11-10T08:24:47.863Z,14.20
2022-11-10T08:27:33.643Z,14.45
2022-11-10T08:30:19.244Z,14.28
2022-11-10T08:33:06.665Z,14.38
2022-11-10T08:35:52.746Z,14.47
2022-11-10T08:38:38.134Z,14.70
2022-11-10T08:41:23.423Z,14.51
2022-11-10T08:44:10.984Z,14.46
2022-11-10T08:46:56.363Z,14.39
2022-11-10T08:49:41.840Z,14.42
2022-11-10T08:52:27.787Z,14.10
2022-11-10T08:55:13.650Z,13.89
2022-11-10T08:58:04.101Z,14.11
2022-11-10T09:00:50.096Z,14.30
2022-11-10T09:03:35.185Z,14.56
2022-11-10T09:06:20.754Z,14.56
2022-11-10T09:09:06.027Z,14.95
2022-11-10T09:11:51.479Z,15.31
2022-11-10T09:14:37.072Z,15.68
2022-11-10T09:17:22.638Z,15.86
2022-11-10T09:20:09.586Z,16.19
2022-11-10T09:22:55.247Z,16.03
2022-11-10T09:25:41.707Z,16.14
2022-11-10T09:28:27.200Z,16.15
2022-11-10T09:31:12.500Z,15.84
2022-11-10T09:33:59.364Z,16.37
2022-11-10T09:36:44.771Z,16.72
2022-11-10T09:39:30.053Z,16.83
2022-11-10T09:42:35.754Z,16.82
2022-11-10T10:18:07.358Z,15.67
2022-11-10T10:20:58.937Z,16.01
2022-11-10T10:24:11.395Z,16.41
2022-11-10T10:27:00.953Z,16.57
2022-11-10T10:29:49.333Z,16.77
2022-11-10T10:32:35.459Z,16.90
2022-11-10T10:35:21.097Z,16.51
2022-11-10T10:38:23.181Z,16.83
2022-11-10T10:41:24.080Z,17.06
2022-11-10T10:44:18.901Z,16.79
2022-11-10T10:47:04.997Z,17.05
2022-11-10T10:49:50.433Z,17.30
2022-11-10T10:52:35.975Z,17.23
2022-11-10T10:55:21.218Z,17.27
2022-11-10T10:58:45.308Z,17.19
2022-11-10T11:01:37.642Z,16.77
2022-11-10T11:04:37.591Z,16.89
2022-11-10T11:07:25.267Z,16.32
2022-11-10T11:10:34.764Z,16.05
2022-11-10T11:13:26.042Z,16.14
2022-11-10T11:16:12.862Z,15.65
2022-11-10T11:18:58.996Z,15.85
2022-11-10T11:22:05.552Z,15.94
2022-11-10T11:24:59.862Z,15.72
2022-11-10T11:27:49.330Z,15.57
2022-11-10T11:31:10.297Z,15.66
2022-11-10T11:33:55.545Z,15.62
2022-11-10T11:36:57.290Z,15.63
2022-11-10T11:40:10.530Z,15.51
2022-11-10T11:43:16.765Z,15.46
2022-11-10T11:46:11.570Z,15.42
2022-11-10T11:49:18.263Z,15.48
2022-11-10T11:52:28.544Z,15.36
2022-11-10T11:55:43.912Z,15.23
2022-11-10T11:59:04.960Z,15.24
2022-11-10T12:02:03.871Z,15.01
2022-11-10T12:05:07.918Z,15.00
2022-11-10T12:08:05.085Z,15.05
2022-11-10T12:10:50.511Z,14.96
2022-11-10T12:14:03.832Z,15.17
2022-11-10T12:17:02.427Z,14.95
2022-11-10T12:20:08.506Z,15.05
2022-11-10T12:23:14.274Z,15.04
2022-11-10T12:26:08.357Z,14.92
2022-11-10T12:29:18.125Z,14.89
2022-11-10T12:32:15.974Z,15.09
2022-11-10T12:35:22.897Z,14.92
2022-11-10T12:38:23.603Z,14.98
2022-11-10T12:41:14.799Z,14.57
2022-11-10T12:44:22.814Z,14.79
2022-11-10T12:47:11.570Z,14.62
2022-11-10T12:50:28.254Z,14.46
2022-11-10T12:53:35.217Z,14.48
2022-11-10T12:56:23.690Z,14.34
2022-11-10T12:59:21.390Z,14.31
2022-11-10T13:02:32.815Z,14.27
2022-11-10T13:05:23.899Z,14.06
2022-11-10T13:08:27.554Z,14.13
2022-11-10T13:11:12.690Z,13.88
2022-11-10T13:14:00.744Z,14.29
2022-11-10T13:16:54.147Z,13.98
2022-11-10T13:19:47.573Z,13.88
2022-11-10T13:22:42.712Z,13.82
2022-11-10T13:25:37.469Z,13.94
2022-11-10T13:28:47.366Z,13.95
2022-11-10T13:31:32.651Z,13.88
2022-11-10T13:34:32.881Z,13.58
2022-11-10T13:37:30.182Z,13.91
2022-11-10T13:40:24.474Z,13.57
2022-11-10T13:43:24.151Z,13.75
2022-11-10T13:46:09.726Z,13.73
2022-11-10T13:49:06.382Z,13.70
2022-11-10T13:52:06.459Z,13.63
2022-11-10T13:55:15.740Z,13.57
2022-11-10T13:58:28.968Z,13.53
2022-11-10T14:01:17.631Z,13.51
2022-11-10T14:04:06.231Z,13.60
2022-11-10T14:06:55.086Z,13.38
2022-11-10T14:09:49.101Z,13.46
2022-11-10T14:12:49.155Z,13.44
2022-11-10T14:15:44.450Z,13.25
2022-11-10T14:18:41.675Z,13.17
2022-11-10T14:21:58.119Z,13.20
2022-11-10T14:25:03.670Z,13.02
2022-11-10T14:27:51.516Z,13.20
2022-11-10T14:30:40.604Z,12.93
2022-11-10T14:33:28.294Z,12.99
2022-11-10T14:36:14.056Z,12.82
2022-11-10T14:39:07.807Z,12.87
2022-11-10T14:41:53.912Z,12.85
2022-11-10T14:44:39.368Z,12.93
2022-11-10T14:47:27.878Z,12.70
2022-11-10T14:50:13.728Z,12.74
2022-11-10T14:53:07.965Z,12.65
2022-11-10T14:55:55.160Z,12.66
2022-11-10T14:58:43.122Z,12.62
2022-11-10T15:01:38.937Z,12.60
2022-11-10T15:04:30.785Z,12.60
2022-11-10T15:07:16.470Z,12.36
2022-11-10T15:10:26.700Z,12.39
2022-11-10T15:13:14.907Z,12.27
2022-11-10T15:16:35.023Z,12.14
2022-11-10T15:19:38.746Z,12.16
2022-11-10T15:22:32.752Z,12.15
2022-11-10T15:25:21.569Z,11.93
2022-11-10T15:28:18.714Z,12.05
2022-11-10T15:31:07.572Z,12.00
2022-11-10T15:34:01.558Z,11.92
2022-11-10T15:36:47.076Z,11.86
2022-11-10T15:39:32.545Z,11.90
2022-11-10T15:42:21.468Z,11.86
2022-11-10T15:45:07.272Z,11.94
2022-11-10T15:47:52.604Z,11.91
2022-11-10T15:50:38.382Z,11.78
2022-11-10T15:53:30.288Z,11.79
2022-11-10T15:56:18.321Z,11.75
2022-11-10T15:59:04.244Z,11.59
2022-11-10T16:01:50.725Z,11.58
2022-11-10T16:04:36.047Z,11.58
2022-11-10T16:07:21.757Z,11.55
2022-11-10T16:10:07.169Z,11.54
2022-11-10T16:12:52.408Z,11.56
2022-11-10T16:15:39.015Z,11.45
2022-11-10T16:18:27.592Z,11.39
2022-11-10T16:21:14.639Z,11.36
2022-11-10T16:24:00.129Z,11.37
2022-11-10T16:26:45.850Z,11.44
2022-11-10T16:29:32.600Z,11.29
2022-11-10T16:32:18.143Z,11.27
2022-11-10T16:35:04.047Z,11.27
2022-11-10T16:37:49.816Z,11.32
2022-11-10T16:40:35.033Z,11.24
2022-11-10T16:43:20.829Z,11.22
2022-11-10T16:46:18.461Z,11.29
2022-11-10T16:49:06.416Z,11.40
2022-11-10T16:51:52.131Z,11.34
2022-11-10T16:54:37.588Z,11.23
2022-11-10T16:57:22.901Z,11.15
2022-11-10T17:00:09.699Z,10.93
2022-11-10T17:03:02.125Z,10.74
2022-11-10T17:05:48.551Z,10.88
2022-11-10T17:08:36.025Z,10.81
2022-11-10T17:11:21.755Z,10.89
2022-11-10T17:14:10.709Z,10.88
2022-11-10T17:16:56.777Z,10.94
2022-11-10T17:19:42.923Z,11.04
2022-11-10T17:22:33.608Z,10.94
2022-11-10T17:25:26.272Z,11.06
2022-11-10T17:28:16.078Z,11.01
2022-11-10T17:31:01.380Z,10.94
2022-11-10T17:33:46.933Z,10.93
2022-11-10T17:36:34.453Z,10.94
2022-11-10T17:39:20.042Z,10.91
2022-11-10T17:42:05.652Z,10.95
2022-11-10T17:44:50.735Z,10.90
2022-11-10T17:47:36.079Z,10.88
2022-11-10T17:50:23.615Z,10.76
2022-11-10T17:53:23.896Z,10.72
2022-11-10T17:56:09.540Z,10.85
2022-11-10T17:58:55.276Z,10.94
2022-11-10T18:01:40.998Z,10.93
2022-11-10T18:04:26.693Z,10.90
2022-11-10T18:07:11.866Z,10.88
2022-11-10T18:09:57.126Z,10.88
2022-11-10T18:12:42.837Z,10.93
2022-11-10T18:15:28.448Z,10.90
2022-11-10T18:18:15.686Z,10.87
2022-11-10T18:21:01.590Z,10.75
2022-11-10T18:23:47.116Z,10.70
2022-11-10T18:26:32.974Z,10.76
2022-11-10T18:29:18.309Z,10.82
2022-11-10T18:32:03.879Z,10.83
2022-11-10T18:34:49.709Z,10.78
2022-11-10T18:37:38.915Z,10.71
2022-11-10T18:40:25.146Z,10.70
2022-11-10T18:43:10.868Z,10.72
2022-11-10T18:45:56.564Z,10.77
2022-11-10T18:48:42.628Z,10.83
2022-11-10T18:51:27.762Z,10.68
2022-11-10T18:54:13.368Z,10.75
2022-11-10T18:56:58.737Z,10.75
2022-11-10T18:59:45.044Z,10.80
2022-11-10T19:02:30.353Z,10.82
2022-11-10T19:05:15.851Z,10.85
2022-11-10T19:08:01.321Z,10.77
2022-11-10T19:10:46.811Z,10.69
2022-11-10T19:13:32.409Z,10.85
2022-11-10T19:16:19.308Z,10.94
2022-11-10T19:19:04.758Z,10.87
2022-11-10T19:21:50.200Z,10.86
2022-11-10T19:24:53.631Z,10.84
2022-11-10T19:27:41.524Z,10.90
2022-11-10T19:30:26.832Z,10.95
2022-11-10T19:33:12.519Z,10.69
2022-11-10T19:36:03.484Z,10.85
2022-11-10T19:38:49.305Z,10.82
2022-11-10T19:41:36.073Z,10.76
2022-11-10T19:44:21.920Z,10.77
2022-11-10T19:47:07.622Z,10.51
2022-11-10T19:49:52.981Z,10.13
2022-11-10T19:52:38.687Z,10.08
2022-11-10T19:55:24.381Z,10.25
2022-11-10T19:58:10.095Z,10.20
2022-11-10T20:00:56.223Z,10.25
2022-11-10T20:03:41.671Z,10.36
2022-11-10T20:06:27.108Z,10.32
2022-11-10T20:09:12.668Z,10.12
2022-11-10T20:11:58.004Z,10.13
2022-11-10T20:14:43.284Z,10.21
2022-11-10T20:17:28.638Z,10.33
2022-11-10T20:20:14.948Z,10.17
2022-11-10T20:23:04.873Z,10.28
2022-11-10T20:25:50.315Z,10.30
2022-11-10T20:28:37.556Z,10.33
2022-11-10T20:31:24.464Z,10.41
2022-11-10T20:34:09.997Z,10.43
2022-11-10T20:36:55.803Z,10.55
2022-11-10T20:39:41.352Z,10.38
2022-11-10T20:42:26.986Z,10.38
2022-11-10T20:45:12.229Z,10.40
2022-11-10T20:47:58.815Z,10.38
2022-11-10T20:50:44.026Z,10.47
2022-11-10T20:53:29.775Z,10.39
2022-11-10T20:56:15.884Z,10.52
2022-11-10T20:59:01.429Z,10.52
2022-11-10T21:01:47.232Z,10.30
2022-11-10T21:04:32.781Z,10.20
2022-11-10T21:07:18.461Z,10.21
2022-11-10T21:10:04.283Z,10.14
2022-11-10T21:12:49.837Z,10.26
2022-11-10T21:15:39.065Z,10.24
2022-11-10T21:18:26.928Z,10.28
2022-11-10T21:21:23.852Z,10.19
2022-11-10T21:24:10.289Z,10.22
2022-11-10T21:26:57.193Z,10.08
2022-11-10T21:29:42.489Z,10.12
2022-11-10T21:32:28.153Z,10.34
2022-11-10T21:35:13.869Z,10.29
2022-11-10T21:37:59.294Z,10.18
2022-11-10T21:40:44.994Z,10.20
2022-11-10T21:43:31.312Z,10.19
2022-11-10T21:46:17.667Z,10.26
2022-11-10T21:49:07.436Z,10.33
2022-11-10T21:51:53.694Z,10.32
2022-11-10T21:54:39.069Z,10.26
2022-11-10T21:57:24.582Z,10.15
2022-11-10T22:00:11.625Z,10.18
2022-11-10T22:03:01.675Z,10.27
2022-11-10T22:05:47.023Z,10.32
2022-11-10T22:08:32.971Z,10.37
2022-11-10T22:11:39.231Z,10.37
2022-11-10T22:14:43.379Z,10.28
2022-11-10T22:17:46.977Z,10.30
2022-11-10T22:20:32.165Z,10.25
2022-11-10T22:23:17.509Z,10.32
2022-11-10T22:26:03.007Z,10.35
2022-11-10T22:28:48.525Z,10.55
2022-11-10T22:31:34.025Z,10.35
2022-11-10T22:34:19.978Z,10.28
2022-11-10T22:37:05.301Z,10.39
2022-11-10T22:40:09.166Z,10.32
2022-11-10T22:43:12.644Z,10.56
2022-11-10T22:45:57.774Z,10.37
2022-11-10T22:48:43.200Z,10.42
2022-11-10T22:51:30.253Z,10.44
2022-11-10T22:54:17.192Z,10.40
2022-11-10T22:57:02.690Z,10.35
2022-11-10T22:59:48.037Z,10.25
2022-11-10T23:02:33.580Z,10.23
2022-11-10T23:05:19.088Z,10.24
2022-11-10T23:08:04.301Z,10.22
2022-11-10T23:10:49.679Z,10.29
2022-11-10T23:13:36.724Z,10.27
2022-11-10T23:16:32.393Z,10.32
2022-11-10T23:19:17.504Z,10.39
2022-11-10T23:22:02.755Z,10.37
2022-11-10T23:24:49.824Z,10.53
2022-11-10T23:27:36.802Z,10.67
2022-11-10T23:30:24.288Z,10.63
2022-11-10T23:33:09.256Z,10.57
2022-11-10T23:35:54.587Z,10.48
2022-11-10T23:38:40.753Z,10.49
2022-11-10T23:41:26.808Z,10.47
2022-11-10T23:44:12.312Z,10.51
2022-11-10T23:46:57.669Z,10.57
2022-11-10T23:49:43.013Z,10.53
2022-11-10T23:52:28.140Z,10.55
2022-11-10T23:55:13.538Z,10.52
2022-11-10T23:57:59.068Z,10.44
